Advantage Spring — V7LO4 — position and weather

sailwx.info

Track history (hours):
 
Tides and Currents Weather Stations Pressure Air Temp Water Temp Dewpoint Dewpoint Depression Visibility Wind Speed Wind Dir Waves Ship Positions

Advantage Spring

Last reported at 2018-Jan-31 12:42 UTC. Time now 2018-Feb-19 02:03 UTC.
Position S 23°39' W 043°22'.
Warning: this ship's position is 18 days out of date.

Length 274 m; draft 15.2 m.

Type: Tanker. MMSI: 538006308.

Date/timePositionNaut miles runAvg speedWind from/ knotsBaromVisibWave heightAir tempDewpointWater temp
2018-Jan-31 12:42S 23°39' W 043°22'613.3
2018-Jan-31 12:13S 23°33' W 043°19'413.5
2018-Jan-31 11:57S 23°30' W 043°18'613.6
2018-Jan-31 11:30S 23°24' W 043°15'713.2
2018-Jan-31 11:00S 23°18' W 043°13'612.8
2018-Jan-31 10:30S 23°12' W 043°10'612.6
2018-Jan-31 09:59S 23°06' W 043°07'5 9.8
2018-Jan-31 09:29S 23°01' W 043°06'1 1.8
2018-Jan-31 09:00S 23°01' W 043°06'3 6.1
2018-Jan-31 08:30S 23°04' W 043°07'1 1.2
2018-Jan-31 08:00S 23°04' W 043°06'0 0.1
2018-Jan-31 07:30S 23°04' W 043°06'0 0.0
2018-Jan-31 06:51S 23°04' W 043°06'0 0.0
2018-Jan-31 06:18S 23°04' W 043°06'0 0.0
2018-Jan-31 06:00S 23°04' W 043°06'0 0.0
2018-Jan-31 05:30S 23°04' W 043°06'0 0.1
2018-Jan-31 05:00S 23°04' W 043°06'0 0.0
2018-Jan-31 04:24S 23°04' W 043°06'0 0.0
2018-Jan-31 04:00S 23°04' W 043°06'0 0.0
2018-Jan-31 03:30S 23°04' W 043°06'0 0.0
2018-Jan-31 02:54S 23°04' W 043°06'0 0.0
2018-Jan-31 02:30S 23°04' W 043°06'0 0.0
2018-Jan-31 02:00S 23°04' W 043°06'0 0.1
2018-Jan-31 01:30S 23°04' W 043°06'0 0.0
2018-Jan-31 01:00S 23°04' W 043°06'0 0.0
2018-Jan-31 00:00S 23°04' W 043°06'0 0.0
2018-Jan-30 23:30S 23°04' W 043°06'0 0.0
2018-Jan-30 23:00S 23°04' W 043°06'0 0.0
2018-Jan-30 22:30S 23°04' W 043°06'0 0.1
2018-Jan-30 21:30S 23°04' W 043°07'2 4.6
2018-Jan-30 21:01S 23°02' W 043°06'2 3.2
2018-Jan-30 20:30S 23°00' W 043°05'5 9.3
2018-Jan-30 20:01S 23°02' W 042°60'611.9
2018-Jan-30 19:31S 23°04' W 042°54'612.7
2018-Jan-30 19:00S 23°05' W 042°47'1413.0
2018-Jan-30 17:55S 23°05' W 042°31'812.9
2018-Jan-30 17:19S 23°05' W 042°23'  
2018-Jan-27 14:01S 23°05' W 042°46'013.6
2018-Jan-27 13:59S 23°05' W 042°46'713.5
2018-Jan-27 13:30S 23°05' W 042°53'713.1
2018-Jan-27 13:00S 23°04' W 043°01'611.3
2018-Jan-27 12:31S 23°01' W 043°06'510.5
2018-Jan-27 12:00S 22°56' W 043°08'611.8
2018-Jan-27 11:30S 22°50' W 043°09'1 2.0
2018-Jan-27 10:58S 22°49' W 043°08'0 0.3
2018-Jan-27 10:28S 22°49' W 043°08'0 0.1
2018-Jan-27 09:58S 22°49' W 043°09'0 0.1
2018-Jan-27 09:22S 22°49' W 043°09'0 0.0
2018-Jan-27 08:58S 22°49' W 043°09'0 0.1
2018-Jan-27 08:28S 22°49' W 043°09'0 0.0
2018-Jan-27 07:58S 22°49' W 043°09'0 0.0
2018-Jan-27 07:28S 22°49' W 043°09'0 0.0
2018-Jan-27 06:58S 22°49' W 043°09'0 0.0
2018-Jan-27 06:28S 22°49' W 043°09'0 0.0
2018-Jan-27 05:58S 22°49' W 043°09'0 0.1
2018-Jan-27 05:28S 22°49' W 043°09'0 0.1
2018-Jan-27 04:58S 22°49' W 043°09'0 0.2
2018-Jan-27 04:25S 22°49' W 043°09'0 0.1
2018-Jan-27 03:55S 22°49' W 043°09'0 0.0
2018-Jan-27 03:28S 22°49' W 043°09'0 0.0
2018-Jan-27 02:58S 22°49' W 043°09'0 0.1
2018-Jan-27 02:28S 22°49' W 043°09'0 0.0
2018-Jan-27 01:58S 22°49' W 043°09'0 0.0
2018-Jan-27 01:28S 22°49' W 043°09'0 0.0
2018-Jan-27 00:58S 22°49' W 043°09'0 0.0
2018-Jan-27 00:28S 22°49' W 043°09'0 0.1
2018-Jan-26 23:58S 22°49' W 043°09'0 0.0
2018-Jan-26 23:28S 22°49' W 043°09'0 0.0
2018-Jan-26 22:58S 22°49' W 043°09'0 0.0
2018-Jan-26 22:28S 22°49' W 043°09'0 0.1
2018-Jan-26 21:58S 22°49' W 043°09'0 0.1
2018-Jan-26 21:28S 22°49' W 043°09'0 0.1
2018-Jan-26 20:58S 22°49' W 043°09'0 0.0
2018-Jan-26 20:28S 22°49' W 043°08'0 0.1
2018-Jan-26 19:58S 22°49' W 043°09'0 0.1
2018-Jan-26 19:28S 22°49' W 043°09'0 0.0
2018-Jan-26 18:58S 22°49' W 043°09'0 0.0
2018-Jan-26 18:28S 22°49' W 043°09'0 0.0
2018-Jan-26 17:55S 22°49' W 043°09'0 0.1
2018-Jan-26 17:28S 22°49' W 043°09'0 0.0
2018-Jan-26 16:58S 22°49' W 043°09'0 0.0
2018-Jan-26 16:28S 22°49' W 043°09'0 0.0
2018-Jan-26 15:58S 22°49' W 043°09'0 0.1
2018-Jan-26 15:28S 22°49' W 043°09'0 0.1
2018-Jan-26 14:58S 22°49' W 043°08'0 0.1
2018-Jan-26 14:28S 22°49' W 043°08'0 0.2
2018-Jan-26 13:58S 22°49' W 043°09'0 0.1
2018-Jan-26 13:28S 22°49' W 043°09'0 0.1
2018-Jan-26 12:58S 22°49' W 043°09'0 0.1
2018-Jan-26 12:28S 22°49' W 043°09'0 0.1
2018-Jan-26 11:55S 22°49' W 043°09'0 0.0
2018-Jan-26 11:28S 22°49' W 043°09'0 0.0
2018-Jan-26 10:58S 22°49' W 043°09'0 0.0
2018-Jan-26 10:28S 22°49' W 043°09'0 0.2
2018-Jan-26 09:58S 22°49' W 043°09'0 0.3
2018-Jan-26 09:25S 22°49' W 043°09'0 0.1
2018-Jan-26 08:58S 22°49' W 043°09'0 0.0
2018-Jan-26 08:28S 22°49' W 043°09'0 0.0
2018-Jan-26 07:58S 22°49' W 043°09'0 0.0
2018-Jan-26 07:28S 22°49' W 043°09'0 0.0
2018-Jan-26 06:58S 22°49' W 043°09'0 0.0
2018-Jan-26 06:28S 22°49' W 043°09'0 0.0
2018-Jan-26 05:55S 22°49' W 043°09'0 0.0
2018-Jan-26 05:25S 22°49' W 043°09'0 0.0
2018-Jan-26 04:58S 22°49' W 043°09'0 0.1
2018-Jan-26 04:28S 22°49' W 043°09'0 0.0
2018-Jan-26 03:58S 22°49' W 043°09'0 0.0
2018-Jan-26 03:28S 22°49' W 043°09'0 0.0
2018-Jan-26 02:58S 22°49' W 043°09'0 0.0
2018-Jan-26 02:28S 22°49' W 043°09'0 0.1
2018-Jan-26 01:58S 22°49' W 043°09'0 0.1
2018-Jan-26 01:25S 22°49' W 043°09'0 0.1
2018-Jan-26 00:58S 22°49' W 043°09'0 0.1
2018-Jan-26 00:28S 22°49' W 043°09'0 0.1
2018-Jan-25 23:58S 22°49' W 043°09'0 0.0
2018-Jan-25 23:28S 22°49' W 043°09'0 0.0
2018-Jan-25 22:58S 22°49' W 043°09'0 0.0
2018-Jan-25 22:28S 22°49' W 043°09'0 0.0
2018-Jan-25 21:58S 22°49' W 043°09'0 0.1
2018-Jan-25 21:28S 22°49' W 043°09'0 0.1
2018-Jan-25 20:58S 22°49' W 043°09'0 0.1
2018-Jan-25 20:28S 22°49' W 043°09'0 0.2
2018-Jan-25 19:58S 22°49' W 043°09'0 0.1
2018-Jan-25 19:28S 22°49' W 043°09'0 0.2
2018-Jan-25 18:58S 22°49' W 043°09'0 0.0
2018-Jan-25 18:28S 22°49' W 043°09'0 0.1
2018-Jan-25 17:58S 22°49' W 043°09'0 0.0
2018-Jan-25 14:49S 22°49' W 043°09'0 0.2
2018-Jan-25 14:25S 22°49' W 043°09'0 0.1
2018-Jan-25 13:58S 22°49' W 043°09'0 0.0
2018-Jan-25 13:28S 22°49' W 043°09'0 0.0
2018-Jan-25 12:58S 22°49' W 043°09'0 0.2
2018-Jan-25 12:28S 22°49' W 043°08'0 0.3
2018-Jan-25 11:58S 22°49' W 043°08'0 0.1
2018-Jan-25 11:28S 22°49' W 043°08'0 0.0
2018-Jan-25 10:58S 22°49' W 043°08'0 0.1
2018-Jan-25 10:28S 22°49' W 043°09'0 0.3
2018-Jan-25 10:00S 22°49' W 043°09'3 5.9
2018-Jan-25 09:30S 22°52' W 043°09'611.1
2018-Jan-25 09:00S 22°58' W 043°08'510.4
2018-Jan-25 08:30S 23°02' W 043°06'812.8
2018-Jan-25 07:51S 23°10' W 043°09'1513.2
2018-Jan-25 06:41S 23°24' W 043°15'  
Track history (hours):
 
Tides and Currents Weather Stations Pressure Air Temp Water Temp Dewpoint Dewpoint Depression Visibility Wind Speed Wind Dir Waves Ship Positions

Advantage Spring

Last reported at 2018-Jan-31 12:42 UTC. Time now 2018-Feb-19 02:03 UTC.
Position S 23°39' W 043°22'.
Warning: this ship's position is 18 days out of date.

Length 274 m; draft 15.2 m.

Type: Tanker. MMSI: 538006308.

Date/timePositionNaut miles runAvg speedWind from/ knotsBaromVisibWave heightAir tempDewpointWater temp
2018-Jan-31 12:42S 23°39' W 043°22'613.3
2018-Jan-31 12:13S 23°33' W 043°19'413.5
2018-Jan-31 11:57S 23°30' W 043°18'613.6
2018-Jan-31 11:30S 23°24' W 043°15'713.2
2018-Jan-31 11:00S 23°18' W 043°13'612.8
2018-Jan-31 10:30S 23°12' W 043°10'612.6
2018-Jan-31 09:59S 23°06' W 043°07'5 9.8
2018-Jan-31 09:29S 23°01' W 043°06'1 1.8
2018-Jan-31 09:00S 23°01' W 043°06'3 6.1
2018-Jan-31 08:30S 23°04' W 043°07'1 1.2
2018-Jan-31 08:00S 23°04' W 043°06'0 0.1
2018-Jan-31 07:30S 23°04' W 043°06'0 0.0
2018-Jan-31 06:51S 23°04' W 043°06'0 0.0
2018-Jan-31 06:18S 23°04' W 043°06'0 0.0
2018-Jan-31 06:00S 23°04' W 043°06'0 0.0
2018-Jan-31 05:30S 23°04' W 043°06'0 0.1
2018-Jan-31 05:00S 23°04' W 043°06'0 0.0
2018-Jan-31 04:24S 23°04' W 043°06'0 0.0
2018-Jan-31 04:00S 23°04' W 043°06'0 0.0
2018-Jan-31 03:30S 23°04' W 043°06'0 0.0
2018-Jan-31 02:54S 23°04' W 043°06'0 0.0
2018-Jan-31 02:30S 23°04' W 043°06'0 0.0
2018-Jan-31 02:00S 23°04' W 043°06'0 0.1
2018-Jan-31 01:30S 23°04' W 043°06'0 0.0
2018-Jan-31 01:00S 23°04' W 043°06'0 0.0
2018-Jan-31 00:00S 23°04' W 043°06'0 0.0
2018-Jan-30 23:30S 23°04' W 043°06'0 0.0
2018-Jan-30 23:00S 23°04' W 043°06'0 0.0
2018-Jan-30 22:30S 23°04' W 043°06'0 0.1
2018-Jan-30 21:30S 23°04' W 043°07'2 4.6
2018-Jan-30 21:01S 23°02' W 043°06'2 3.2
2018-Jan-30 20:30S 23°00' W 043°05'5 9.3
2018-Jan-30 20:01S 23°02' W 042°60'611.9
2018-Jan-30 19:31S 23°04' W 042°54'612.7
2018-Jan-30 19:00S 23°05' W 042°47'1413.0
2018-Jan-30 17:55S 23°05' W 042°31'812.9
2018-Jan-30 17:19S 23°05' W 042°23'  
2018-Jan-27 14:01S 23°05' W 042°46'013.6
2018-Jan-27 13:59S 23°05' W 042°46'713.5
2018-Jan-27 13:30S 23°05' W 042°53'713.1
2018-Jan-27 13:00S 23°04' W 043°01'611.3
2018-Jan-27 12:31S 23°01' W 043°06'510.5
2018-Jan-27 12:00S 22°56' W 043°08'611.8
2018-Jan-27 11:30S 22°50' W 043°09'1 2.0
2018-Jan-27 10:58S 22°49' W 043°08'0 0.3
2018-Jan-27 10:28S 22°49' W 043°08'0 0.1
2018-Jan-27 09:58S 22°49' W 043°09'0 0.1
2018-Jan-27 09:22S 22°49' W 043°09'0 0.0
2018-Jan-27 08:58S 22°49' W 043°09'0 0.1
2018-Jan-27 08:28S 22°49' W 043°09'0 0.0
2018-Jan-27 07:58S 22°49' W 043°09'0 0.0
2018-Jan-27 07:28S 22°49' W 043°09'0 0.0
2018-Jan-27 06:58S 22°49' W 043°09'0 0.0
2018-Jan-27 06:28S 22°49' W 043°09'0 0.0
2018-Jan-27 05:58S 22°49' W 043°09'0 0.1
2018-Jan-27 05:28S 22°49' W 043°09'0 0.1
2018-Jan-27 04:58S 22°49' W 043°09'0 0.2
2018-Jan-27 04:25S 22°49' W 043°09'0 0.1
2018-Jan-27 03:55S 22°49' W 043°09'0 0.0
2018-Jan-27 03:28S 22°49' W 043°09'0 0.0
2018-Jan-27 02:58S 22°49' W 043°09'0 0.1
2018-Jan-27 02:28S 22°49' W 043°09'0 0.0
2018-Jan-27 01:58S 22°49' W 043°09'0 0.0
2018-Jan-27 01:28S 22°49' W 043°09'0 0.0
2018-Jan-27 00:58S 22°49' W 043°09'0 0.0
2018-Jan-27 00:28S 22°49' W 043°09'0 0.1
2018-Jan-26 23:58S 22°49' W 043°09'0 0.0
2018-Jan-26 23:28S 22°49' W 043°09'0 0.0
2018-Jan-26 22:58S 22°49' W 043°09'0 0.0
2018-Jan-26 22:28S 22°49' W 043°09'0 0.1
2018-Jan-26 21:58S 22°49' W 043°09'0 0.1
2018-Jan-26 21:28S 22°49' W 043°09'0 0.1
2018-Jan-26 20:58S 22°49' W 043°09'0 0.0
2018-Jan-26 20:28S 22°49' W 043°08'0 0.1
2018-Jan-26 19:58S 22°49' W 043°09'0 0.1
2018-Jan-26 19:28S 22°49' W 043°09'0 0.0
2018-Jan-26 18:58S 22°49' W 043°09'0 0.0
2018-Jan-26 18:28S 22°49' W 043°09'0 0.0
2018-Jan-26 17:55S 22°49' W 043°09'0 0.1
2018-Jan-26 17:28S 22°49' W 043°09'0 0.0
2018-Jan-26 16:58S 22°49' W 043°09'0 0.0
2018-Jan-26 16:28S 22°49' W 043°09'0 0.0
2018-Jan-26 15:58S 22°49' W 043°09'0 0.1
2018-Jan-26 15:28S 22°49' W 043°09'0 0.1
2018-Jan-26 14:58S 22°49' W 043°08'0 0.1
2018-Jan-26 14:28S 22°49' W 043°08'0 0.2
2018-Jan-26 13:58S 22°49' W 043°09'0 0.1
2018-Jan-26 13:28S 22°49' W 043°09'0 0.1
2018-Jan-26 12:58S 22°49' W 043°09'0 0.1
2018-Jan-26 12:28S 22°49' W 043°09'0 0.1
2018-Jan-26 11:55S 22°49' W 043°09'0 0.0
2018-Jan-26 11:28S 22°49' W 043°09'0 0.0
2018-Jan-26 10:58S 22°49' W 043°09'0 0.0
2018-Jan-26 10:28S 22°49' W 043°09'0 0.2
2018-Jan-26 09:58S 22°49' W 043°09'0 0.3
2018-Jan-26 09:25S 22°49' W 043°09'0 0.1
2018-Jan-26 08:58S 22°49' W 043°09'0 0.0
2018-Jan-26 08:28S 22°49' W 043°09'0 0.0
2018-Jan-26 07:58S 22°49' W 043°09'0 0.0
2018-Jan-26 07:28S 22°49' W 043°09'0 0.0
2018-Jan-26 06:58S 22°49' W 043°09'0 0.0
2018-Jan-26 06:28S 22°49' W 043°09'0 0.0
2018-Jan-26 05:55S 22°49' W 043°09'0 0.0
2018-Jan-26 05:25S 22°49' W 043°09'0 0.0
2018-Jan-26 04:58S 22°49' W 043°09'0 0.1
2018-Jan-26 04:28S 22°49' W 043°09'0 0.0
2018-Jan-26 03:58S 22°49' W 043°09'0 0.0
2018-Jan-26 03:28S 22°49' W 043°09'0 0.0
2018-Jan-26 02:58S 22°49' W 043°09'0 0.0
2018-Jan-26 02:28S 22°49' W 043°09'0 0.1
2018-Jan-26 01:58S 22°49' W 043°09'0 0.1
2018-Jan-26 01:25S 22°49' W 043°09'0 0.1
2018-Jan-26 00:58S 22°49' W 043°09'0 0.1
2018-Jan-26 00:28S 22°49' W 043°09'0 0.1
2018-Jan-25 23:58S 22°49' W 043°09'0 0.0
2018-Jan-25 23:28S 22°49' W 043°09'0 0.0
2018-Jan-25 22:58S 22°49' W 043°09'0 0.0
2018-Jan-25 22:28S 22°49' W 043°09'0 0.0
2018-Jan-25 21:58S 22°49' W 043°09'0 0.1
2018-Jan-25 21:28S 22°49' W 043°09'0 0.1
2018-Jan-25 20:58S 22°49' W 043°09'0 0.1
2018-Jan-25 20:28S 22°49' W 043°09'0 0.2
2018-Jan-25 19:58S 22°49' W 043°09'0 0.1
2018-Jan-25 19:28S 22°49' W 043°09'0 0.2
2018-Jan-25 18:58S 22°49' W 043°09'0 0.0
2018-Jan-25 18:28S 22°49' W 043°09'0 0.1
2018-Jan-25 17:58S 22°49' W 043°09'0 0.0
2018-Jan-25 14:49S 22°49' W 043°09'0 0.2
2018-Jan-25 14:25S 22°49' W 043°09'0 0.1
2018-Jan-25 13:58S 22°49' W 043°09'0 0.0
2018-Jan-25 13:28S 22°49' W 043°09'0 0.0
2018-Jan-25 12:58S 22°49' W 043°09'0 0.2
2018-Jan-25 12:28S 22°49' W 043°08'0 0.3
2018-Jan-25 11:58S 22°49' W 043°08'0 0.1
2018-Jan-25 11:28S 22°49' W 043°08'0 0.0
2018-Jan-25 10:58S 22°49' W 043°08'0 0.1
2018-Jan-25 10:28S 22°49' W 043°09'0 0.3
2018-Jan-25 10:00S 22°49' W 043°09'3 5.9
2018-Jan-25 09:30S 22°52' W 043°09'611.1
2018-Jan-25 09:00S 22°58' W 043°08'510.4
2018-Jan-25 08:30S 23°02' W 043°06'812.8
2018-Jan-25 07:51S 23°10' W 043°09'1513.2
2018-Jan-25 06:41S 23°24' W 043°15'  

Dump ship's entire track history